sensor_id;sensor_type;location;lat;lon;timestamp;temperature;humidity
9425;DHT22;17139;52.140;11.636;2023-03-11T00:01:11;-0.70;70.80
9425;DHT22;17139;52.140;11.636;2023-03-11T00:03:38;-0.70;70.80
9425;DHT22;17139;52.140;11.636;2023-03-11T00:06:05;-0.70;70.80
9425;DHT22;17139;52.140;11.636;2023-03-11T00:08:33;-0.80;70.80
9425;DHT22;17139;52.140;11.636;2023-03-11T00:11:00;-0.80;70.80
9425;DHT22;17139;52.140;11.636;2023-03-11T00:13:28;-0.70;70.80
9425;DHT22;17139;52.140;11.636;2023-03-11T00:15:58;-0.80;71.10
9425;DHT22;17139;52.140;11.636;2023-03-11T00:18:27;-0.20;69.90
9425;DHT22;17139;52.140;11.636;2023-03-11T00:20:57;0.40;67.00
9425;DHT22;17139;52.140;11.636;2023-03-11T00:23:25;0.10;67.30
9425;DHT22;17139;52.140;11.636;2023-03-11T00:25:52;-0.20;68.50
9425;DHT22;17139;52.140;11.636;2023-03-11T00:28:19;-0.40;69.30
9425;DHT22;17139;52.140;11.636;2023-03-11T00:30:46;-0.50;69.80
9425;DHT22;17139;52.140;11.636;2023-03-11T00:33:15;-0.60;70.40
9425;DHT22;17139;52.140;11.636;2023-03-11T00:35:43;-0.70;70.50
9425;DHT22;17139;52.140;11.636;2023-03-11T00:38:17;-0.70;70.70
9425;DHT22;17139;52.140;11.636;2023-03-11T00:40:45;-0.70;70.70
9425;DHT22;17139;52.140;11.636;2023-03-11T00:43:13;-0.70;70.80
9425;DHT22;17139;52.140;11.636;2023-03-11T00:45:40;-0.70;70.80
9425;DHT22;17139;52.140;11.636;2023-03-11T00:48:07;-0.80;70.70
9425;DHT22;17139;52.140;11.636;2023-03-11T00:50:36;-0.60;70.90
9425;DHT22;17139;52.140;11.636;2023-03-11T00:53:04;-0.60;70.30
9425;DHT22;17139;52.140;11.636;2023-03-11T00:55:33;-0.70;70.80
9425;DHT22;17139;52.140;11.636;2023-03-11T00:58:02;-0.80;70.70
9425;DHT22;17139;52.140;11.636;2023-03-11T01:00:30;-0.80;71.10
9425;DHT22;17139;52.140;11.636;2023-03-11T01:02:58;-0.80;71.30
9425;DHT22;17139;52.140;11.636;2023-03-11T01:05:26;-0.80;71.30
9425;DHT22;17139;52.140;11.636;2023-03-11T01:07:55;-0.80;71.50
9425;DHT22;17139;52.140;11.636;2023-03-11T01:10:22;-0.90;71.40
9425;DHT22;17139;52.140;11.636;2023-03-11T01:12:49;-0.90;71.40
9425;DHT22;17139;52.140;11.636;2023-03-11T01:15:19;-0.80;71.40
9425;DHT22;17139;52.140;11.636;2023-03-11T01:17:46;-0.70;71.30
9425;DHT22;17139;52.140;11.636;2023-03-11T01:20:14;-0.30;70.10
9425;DHT22;17139;52.140;11.636;2023-03-11T01:22:41;-0.40;69.50
9425;DHT22;17139;52.140;11.636;2023-03-11T01:25:12;-0.60;70.00
9425;DHT22;17139;52.140;11.636;2023-03-11T01:27:39;-0.70;70.50
9425;DHT22;17139;52.140;11.636;2023-03-11T01:30:08;-0.70;70.70
9425;DHT22;17139;52.140;11.636;2023-03-11T01:32:35;-0.70;70.80
9425;DHT22;17139;52.140;11.636;2023-03-11T01:35:03;-0.80;70.70
9425;DHT22;17139;52.140;11.636;2023-03-11T01:37:30;-0.80;70.70
9425;DHT22;17139;52.140;11.636;2023-03-11T01:39:58;-0.80;70.80
9425;DHT22;17139;52.140;11.636;2023-03-11T01:42:26;-0.80;70.80
9425;DHT22;17139;52.140;11.636;2023-03-11T01:44:53;-0.50;70.60
9425;DHT22;17139;52.140;11.636;2023-03-11T01:47:35;-0.50;69.70
9425;DHT22;17139;52.140;11.636;2023-03-11T01:50:04;-0.60;70.20
9425;DHT22;17139;52.140;11.636;2023-03-11T01:52:32;-0.70;70.40
9425;DHT22;17139;52.140;11.636;2023-03-11T01:54:59;-0.80;70.70
9425;DHT22;17139;52.140;11.636;2023-03-11T01:57:28;-0.80;70.70
9425;DHT22;17139;52.140;11.636;2023-03-11T01:59:57;-0.80;70.70
9425;DHT22;17139;52.140;11.636;2023-03-11T02:02:30;-0.80;70.80
9425;DHT22;17139;52.140;11.636;2023-03-11T02:04:59;-0.90;71.20
9425;DHT22;17139;52.140;11.636;2023-03-11T02:07:28;-0.80;71.00
9425;DHT22;17139;52.140;11.636;2023-03-11T02:09:55;-0.80;71.10
9425;DHT22;17139;52.140;11.636;2023-03-11T02:12:22;-0.80;71.20
9425;DHT22;17139;52.140;11.636;2023-03-11T02:14:52;-0.80;71.30
9425;DHT22;17139;52.140;11.636;2023-03-11T02:17:20;-0.80;71.40
9425;DHT22;17139;52.140;11.636;2023-03-11T02:20:07;-0.80;71.50
9425;DHT22;17139;52.140;11.636;2023-03-11T02:22:39;-0.50;70.60
9425;DHT22;17139;52.140;11.636;2023-03-11T02:25:10;0.20;68.50
9425;DHT22;17139;52.140;11.636;2023-03-11T02:27:42;-0.10;68.20
9425;DHT22;17139;52.140;11.636;2023-03-11T02:30:12;-0.30;69.50
9425;DHT22;17139;52.140;11.636;2023-03-11T02:32:40;-0.50;70.30
9425;DHT22;17139;52.140;11.636;2023-03-11T02:35:09;-0.60;70.70
9425;DHT22;17139;52.140;11.636;2023-03-11T02:37:36;-0.60;70.90
9425;DHT22;17139;52.140;11.636;2023-03-11T02:40:47;-0.70;70.80
9425;DHT22;17139;52.140;11.636;2023-03-11T02:43:19;-0.70;70.80
9425;DHT22;17139;52.140;11.636;2023-03-11T02:45:48;-0.80;71.00
9425;DHT22;17139;52.140;11.636;2023-03-11T02:48:20;-0.70;71.10
9425;DHT22;17139;52.140;11.636;2023-03-11T02:50:48;-0.70;71.00
9425;DHT22;17139;52.140;11.636;2023-03-11T02:53:16;-0.70;71.20
9425;DHT22;17139;52.140;11.636;2023-03-11T02:55:43;-0.70;70.80
9425;DHT22;17139;52.140;11.636;2023-03-11T02:58:10;-0.70;70.90
9425;DHT22;17139;52.140;11.636;2023-03-11T03:00:38;-0.70;70.90
9425;DHT22;17139;52.140;11.636;2023-03-11T03:03:05;-0.70;70.90
9425;DHT22;17139;52.140;11.636;2023-03-11T03:05:33;-0.70;71.00
9425;DHT22;17139;52.140;11.636;2023-03-11T03:08:00;-0.70;70.90
9425;DHT22;17139;52.140;11.636;2023-03-11T03:10:28;-0.70;71.00
9425;DHT22;17139;52.140;11.636;2023-03-11T03:12:55;-0.70;70.90
9425;DHT22;17139;52.140;11.636;2023-03-11T03:15:22;-0.70;70.80
9425;DHT22;17139;52.140;11.636;2023-03-11T03:17:50;-0.60;70.90
9425;DHT22;17139;52.140;11.636;2023-03-11T03:20:17;-0.50;71.00
9425;DHT22;17139;52.140;11.636;2023-03-11T03:22:48;-0.50;70.40
9425;DHT22;17139;52.140;11.636;2023-03-11T03:25:15;-0.60;70.40
9425;DHT22;17139;52.140;11.636;2023-03-11T03:27:42;-0.60;70.70
9425;DHT22;17139;52.140;11.636;2023-03-11T03:30:10;-0.60;70.90
9425;DHT22;17139;52.140;11.636;2023-03-11T03:32:37;-0.60;70.90
9425;DHT22;17139;52.140;11.636;2023-03-11T03:35:07;-0.70;70.80
9425;DHT22;17139;52.140;11.636;2023-03-11T03:37:35;-0.70;70.80
9425;DHT22;17139;52.140;11.636;2023-03-11T03:40:04;-0.70;70.80
9425;DHT22;17139;52.140;11.636;2023-03-11T03:42:33;-0.70;71.00
9425;DHT22;17139;52.140;11.636;2023-03-11T03:45:00;-0.60;70.90
9425;DHT22;17139;52.140;11.636;2023-03-11T03:47:27;-0.50;70.50
9425;DHT22;17139;52.140;11.636;2023-03-11T03:49:54;-0.60;70.40
9425;DHT22;17139;52.140;11.636;2023-03-11T03:52:23;-0.60;70.70
9425;DHT22;17139;52.140;11.636;2023-03-11T03:54:50;0.10;69.20
9425;DHT22;17139;52.140;11.636;2023-03-11T03:57:17;0.00;68.70
9425;DHT22;17139;52.140;11.636;2023-03-11T03:59:44;-0.20;69.20
9425;DHT22;17139;52.140;11.636;2023-03-11T04:02:11;-0.30;69.70
9425;DHT22;17139;52.140;11.636;2023-03-11T04:04:38;-0.40;70.70
9425;DHT22;17139;52.140;11.636;2023-03-11T04:07:05;-0.40;70.30
9425;DHT22;17139;52.140;11.636;2023-03-11T04:09:34;-0.50;70.40
9425;DHT22;17139;52.140;11.636;2023-03-11T04:12:04;-0.50;70.50
9425;DHT22;17139;52.140;11.636;2023-03-11T04:14:31;-0.50;70.70
9425;DHT22;17139;52.140;11.636;2023-03-11T04:16:58;-0.60;70.60
9425;DHT22;17139;52.140;11.636;2023-03-11T04:19:25;-0.50;70.70
9425;DHT22;17139;52.140;11.636;2023-03-11T04:21:52;-0.60;70.90
9425;DHT22;17139;52.140;11.636;2023-03-11T04:24:20;-0.10;70.00
9425;DHT22;17139;52.140;11.636;2023-03-11T04:26:49;0.50;67.80
9425;DHT22;17139;52.140;11.636;2023-03-11T04:29:16;0.20;67.70
9425;DHT22;17139;52.140;11.636;2023-03-11T04:31:43;0.00;69.40
9425;DHT22;17139;52.140;11.636;2023-03-11T04:34:10;-0.20;69.40
9425;DHT22;17139;52.140;11.636;2023-03-11T04:36:38;-0.40;69.90
9425;DHT22;17139;52.140;11.636;2023-03-11T04:39:05;-0.40;70.30
9425;DHT22;17139;52.140;11.636;2023-03-11T04:41:32;-0.50;70.50
9425;DHT22;17139;52.140;11.636;2023-03-11T04:44:00;-0.50;70.50
9425;DHT22;17139;52.140;11.636;2023-03-11T04:46:27;-0.50;70.60
9425;DHT22;17139;52.140;11.636;2023-03-11T04:48:54;-0.50;70.50
9425;DHT22;17139;52.140;11.636;2023-03-11T04:51:21;-0.50;70.50
9425;DHT22;17139;52.140;11.636;2023-03-11T04:53:48;0.10;69.10
9425;DHT22;17139;52.140;11.636;2023-03-11T04:56:15;0.70;67.30
9425;DHT22;17139;52.140;11.636;2023-03-11T04:58:42;0.40;67.20
9425;DHT22;17139;52.140;11.636;2023-03-11T05:01:11;0.10;68.30
9425;DHT22;17139;52.140;11.636;2023-03-11T05:03:38;-0.20;69.10
9425;DHT22;17139;52.140;11.636;2023-03-11T05:06:05;-0.30;69.60
9425;DHT22;17139;52.140;11.636;2023-03-11T05:08:32;-0.30;70.00
9425;DHT22;17139;52.140;11.636;2023-03-11T05:10:59;-0.40;70.20
9425;DHT22;17139;52.140;11.636;2023-03-11T05:13:26;-0.40;70.30
9425;DHT22;17139;52.140;11.636;2023-03-11T05:15:53;-0.50;70.40
9425;DHT22;17139;52.140;11.636;2023-03-11T05:18:21;-0.50;70.50
9425;DHT22;17139;52.140;11.636;2023-03-11T05:20:48;-0.40;70.40
9425;DHT22;17139;52.140;11.636;2023-03-11T05:23:16;-0.10;69.70
9425;DHT22;17139;52.140;11.636;2023-03-11T05:25:43;-0.20;69.00
9425;DHT22;17139;52.140;11.636;2023-03-11T05:28:13;-0.30;69.40
9425;DHT22;17139;52.140;11.636;2023-03-11T05:30:40;-0.30;69.80
9425;DHT22;17139;52.140;11.636;2023-03-11T05:33:07;-0.40;69.90
9425;DHT22;17139;52.140;11.636;2023-03-11T05:35:35;-0.40;70.80
9425;DHT22;17139;52.140;11.636;2023-03-11T05:38:02;-0.40;70.20
9425;DHT22;17139;52.140;11.636;2023-03-11T05:40:29;-0.40;70.30
9425;DHT22;17139;52.140;11.636;2023-03-11T05:42:56;-0.40;70.40
9425;DHT22;17139;52.140;11.636;2023-03-11T05:45:24;-0.40;70.40
9425;DHT22;17139;52.140;11.636;2023-03-11T05:47:51;-0.10;69.80
9425;DHT22;17139;52.140;11.636;2023-03-11T05:50:18;0.70;67.50
9425;DHT22;17139;52.140;11.636;2023-03-11T05:52:46;0.40;67.30
9425;DHT22;17139;52.140;11.636;2023-03-11T05:55:13;0.10;68.30
9425;DHT22;17139;52.140;11.636;2023-03-11T05:57:40;0.00;69.00
9425;DHT22;17139;52.140;11.636;2023-03-11T06:00:09;-0.10;69.10
9425;DHT22;17139;52.140;11.636;2023-03-11T06:02:37;-0.20;69.60
9425;DHT22;17139;52.140;11.636;2023-03-11T06:05:06;-0.30;69.80
9425;DHT22;17139;52.140;11.636;2023-03-11T06:07:34;-0.30;70.20
9425;DHT22;17139;52.140;11.636;2023-03-11T06:10:06;-0.40;70.40
9425;DHT22;17139;52.140;11.636;2023-03-11T06:12:34;-0.50;70.50
9425;DHT22;17139;52.140;11.636;2023-03-11T06:15:03;-0.50;70.60
9425;DHT22;17139;52.140;11.636;2023-03-11T06:17:31;-0.60;70.50
9425;DHT22;17139;52.140;11.636;2023-03-11T06:19:58;-0.60;70.50
9425;DHT22;17139;52.140;11.636;2023-03-11T06:22:25;-0.60;70.40
9425;DHT22;17139;52.140;11.636;2023-03-11T06:24:52;-0.60;70.30
9425;DHT22;17139;52.140;11.636;2023-03-11T06:27:20;-0.50;70.40
9425;DHT22;17139;52.140;11.636;2023-03-11T06:29:51;-0.50;70.40
9425;DHT22;17139;52.140;11.636;2023-03-11T06:32:19;0.20;68.70
9425;DHT22;17139;52.140;11.636;2023-03-11T06:34:49;0.10;68.30
9425;DHT22;17139;52.140;11.636;2023-03-11T06:37:17;-0.10;68.70
9425;DHT22;17139;52.140;11.636;2023-03-11T06:39:45;-0.20;69.30
9425;DHT22;17139;52.140;11.636;2023-03-11T06:42:12;-0.20;69.60
9425;DHT22;17139;52.140;11.636;2023-03-11T06:44:41;-0.30;69.70
9425;DHT22;17139;52.140;11.636;2023-03-11T06:47:08;-0.20;70.00
9425;DHT22;17139;52.140;11.636;2023-03-11T06:49:35;-0.30;69.90
9425;DHT22;17139;52.140;11.636;2023-03-11T06:52:05;-0.30;70.00
9425;DHT22;17139;52.140;11.636;2023-03-11T06:54:33;-0.30;70.10
9425;DHT22;17139;52.140;11.636;2023-03-11T06:57:00;-0.30;70.10
9425;DHT22;17139;52.140;11.636;2023-03-11T06:59:27;-0.40;70.20
9425;DHT22;17139;52.140;11.636;2023-03-11T07:01:55;0.10;69.40
9425;DHT22;17139;52.140;11.636;2023-03-11T07:04:23;0.10;68.80
9425;DHT22;17139;52.140;11.636;2023-03-11T07:06:50;0.00;69.20
9425;DHT22;17139;52.140;11.636;2023-03-11T07:09:17;0.10;69.70
9425;DHT22;17139;52.140;11.636;2023-03-11T07:11:46;0.00;69.30
9425;DHT22;17139;52.140;11.636;2023-03-11T07:14:14;0.00;69.60
9425;DHT22;17139;52.140;11.636;2023-03-11T07:16:41;-0.10;69.70
9425;DHT22;17139;52.140;11.636;2023-03-11T07:19:10;-0.10;69.80
9425;DHT22;17139;52.140;11.636;2023-03-11T07:21:37;0.00;70.00
9425;DHT22;17139;52.140;11.636;2023-03-11T07:24:06;0.00;70.10
9425;DHT22;17139;52.140;11.636;2023-03-11T07:26:34;0.00;70.00
9425;DHT22;17139;52.140;11.636;2023-03-11T07:29:02;0.10;70.20
9425;DHT22;17139;52.140;11.636;2023-03-11T07:31:32;0.10;70.10
9425;DHT22;17139;52.140;11.636;2023-03-11T07:34:00;0.20;70.10
9425;DHT22;17139;52.140;11.636;2023-03-11T07:36:30;0.20;70.10
9425;DHT22;17139;52.140;11.636;2023-03-11T07:38:59;0.30;70.00
9425;DHT22;17139;52.140;11.636;2023-03-11T07:41:29;0.40;69.80
9425;DHT22;17139;52.140;11.636;2023-03-11T07:43:58;0.80;69.00
9425;DHT22;17139;52.140;11.636;2023-03-11T07:46:27;0.70;68.70
9425;DHT22;17139;52.140;11.636;2023-03-11T07:48:54;0.50;69.10
9425;DHT22;17139;52.140;11.636;2023-03-11T07:51:23;0.50;69.60
9425;DHT22;17139;52.140;11.636;2023-03-11T07:53:53;0.40;69.90
9425;DHT22;17139;52.140;11.636;2023-03-11T07:56:21;0.50;70.10
9425;DHT22;17139;52.140;11.636;2023-03-11T07:58:50;0.50;70.10
9425;DHT22;17139;52.140;11.636;2023-03-11T08:01:19;0.50;70.10
9425;DHT22;17139;52.140;11.636;2023-03-11T08:03:48;0.50;70.10
9425;DHT22;17139;52.140;11.636;2023-03-11T08:06:18;0.50;70.10
9425;DHT22;17139;52.140;11.636;2023-03-11T08:08:46;0.50;70.10
9425;DHT22;17139;52.140;11.636;2023-03-11T08:11:15;0.70;69.80
9425;DHT22;17139;52.140;11.636;2023-03-11T08:13:44;0.70;69.30
9425;DHT22;17139;52.140;11.636;2023-03-11T08:16:13;0.60;69.60
9425;DHT22;17139;52.140;11.636;2023-03-11T08:18:40;0.50;69.80
9425;DHT22;17139;52.140;11.636;2023-03-11T08:21:10;0.50;70.10
9425;DHT22;17139;52.140;11.636;2023-03-11T08:23:37;0.50;70.30
9425;DHT22;17139;52.140;11.636;2023-03-11T08:26:05;0.40;70.30
9425;DHT22;17139;52.140;11.636;2023-03-11T08:28:34;0.30;70.30
9425;DHT22;17139;52.140;11.636;2023-03-11T08:31:02;0.70;70.00
9425;DHT22;17139;52.140;11.636;2023-03-11T08:33:29;1.30;67.70
9425;DHT22;17139;52.140;11.636;2023-03-11T08:35:56;1.00;67.60
9425;DHT22;17139;52.140;11.636;2023-03-11T08:38:23;0.70;68.60
9425;DHT22;17139;52.140;11.636;2023-03-11T08:40:50;1.40;67.50
9425;DHT22;17139;52.140;11.636;2023-03-11T08:43:17;1.10;67.50
9425;DHT22;17139;52.140;11.636;2023-03-11T08:45:45;0.80;68.50
9425;DHT22;17139;52.140;11.636;2023-03-11T08:48:12;0.60;69.30
9425;DHT22;17139;52.140;11.636;2023-03-11T08:50:43;0.40;69.80
9425;DHT22;17139;52.140;11.636;2023-03-11T08:53:09;0.40;70.20
9425;DHT22;17139;52.140;11.636;2023-03-11T08:55:36;0.60;70.00
9425;DHT22;17139;52.140;11.636;2023-03-11T08:58:04;0.60;69.50
9425;DHT22;17139;52.140;11.636;2023-03-11T09:00:31;0.50;69.80
9425;DHT22;17139;52.140;11.636;2023-03-11T09:02:59;0.50;70.40
9425;DHT22;17139;52.140;11.636;2023-03-11T09:05:26;0.60;70.50
9425;DHT22;17139;52.140;11.636;2023-03-11T09:07:53;0.60;70.40
9425;DHT22;17139;52.140;11.636;2023-03-11T09:10:21;0.70;70.10
9425;DHT22;17139;52.140;11.636;2023-03-11T09:12:48;0.60;69.80
9425;DHT22;17139;52.140;11.636;2023-03-11T09:15:16;0.60;70.10
9425;DHT22;17139;52.140;11.636;2023-03-11T09:17:43;0.50;70.20
9425;DHT22;17139;52.140;11.636;2023-03-11T09:20:13;0.40;70.40
9425;DHT22;17139;52.140;11.636;2023-03-11T09:22:42;0.30;70.50
9425;DHT22;17139;52.140;11.636;2023-03-11T09:25:11;0.30;70.60
9425;DHT22;17139;52.140;11.636;2023-03-11T09:27:38;0.20;70.70
9425;DHT22;17139;52.140;11.636;2023-03-11T09:30:07;0.70;70.00
9425;DHT22;17139;52.140;11.636;2023-03-11T09:32:34;1.30;67.90
9425;DHT22;17139;52.140;11.636;2023-03-11T09:35:01;1.10;67.70
9425;DHT22;17139;52.140;11.636;2023-03-11T09:37:29;0.80;68.70
9425;DHT22;17139;52.140;11.636;2023-03-11T09:39:56;0.70;69.60
9425;DHT22;17139;52.140;11.636;2023-03-11T09:42:28;0.60;69.60
9425;DHT22;17139;52.140;11.636;2023-03-11T09:45:03;0.60;69.80
9425;DHT22;17139;52.140;11.636;2023-03-11T09:47:37;0.50;69.90
9425;DHT22;17139;52.140;11.636;2023-03-11T09:50:28;0.80;69.80
9425;DHT22;17139;52.140;11.636;2023-03-11T09:53:06;0.80;69.20
9425;DHT22;17139;52.140;11.636;2023-03-11T09:55:43;0.80;69.70
9425;DHT22;17139;52.140;11.636;2023-03-11T09:58:14;0.90;69.90
9425;DHT22;17139;52.140;11.636;2023-03-11T10:00:46;0.90;69.90
9425;DHT22;17139;52.140;11.636;2023-03-11T10:03:27;1.00;70.10
9425;DHT22;17139;52.140;11.636;2023-03-11T10:06:03;1.10;70.00
9425;DHT22;17139;52.140;11.636;2023-03-11T10:08:39;1.20;69.80
9425;DHT22;17139;52.140;11.636;2023-03-11T10:11:19;1.20;69.70
9425;DHT22;17139;52.140;11.636;2023-03-11T10:13:58;1.30;70.60
9425;DHT22;17139;52.140;11.636;2023-03-11T10:16:31;1.30;69.50
9425;DHT22;17139;52.140;11.636;2023-03-11T10:19:07;1.40;69.50
9425;DHT22;17139;52.140;11.636;2023-03-11T10:21:45;1.50;69.60
9425;DHT22;17139;52.140;11.636;2023-03-11T10:24:35;2.30;67.70
9425;DHT22;17139;52.140;11.636;2023-03-11T10:27:08;2.20;67.30
9425;DHT22;17139;52.140;11.636;2023-03-11T10:29:45;2.10;67.70
9425;DHT22;17139;52.140;11.636;2023-03-11T10:32:19;2.10;68.20
9425;DHT22;17139;52.140;11.636;2023-03-11T10:34:53;2.00;68.40
9425;DHT22;17139;52.140;11.636;2023-03-11T10:37:25;1.90;68.40
9425;DHT22;17139;52.140;11.636;2023-03-11T10:39:54;1.80;68.80
9425;DHT22;17139;52.140;11.636;2023-03-11T10:42:26;2.30;67.50
9425;DHT22;17139;52.140;11.636;2023-03-11T10:44:54;2.80;65.10
9425;DHT22;17139;52.140;11.636;2023-03-11T10:47:23;3.20;62.60
9425;DHT22;17139;52.140;11.636;2023-03-11T10:49:50;2.70;64.30
9425;DHT22;17139;52.140;11.636;2023-03-11T10:52:18;2.30;66.10
9425;DHT22;17139;52.140;11.636;2023-03-11T10:54:46;2.00;67.10
9425;DHT22;17139;52.140;11.636;2023-03-11T10:57:23;2.00;67.70
9425;DHT22;17139;52.140;11.636;2023-03-11T10:59:52;1.90;68.10
9425;DHT22;17139;52.140;11.636;2023-03-11T11:02:25;2.00;68.50
9425;DHT22;17139;52.140;11.636;2023-03-11T11:05:16;2.10;68.30
9425;DHT22;17139;52.140;11.636;2023-03-11T11:07:48;2.70;66.80
9425;DHT22;17139;52.140;11.636;2023-03-11T11:10:17;3.40;63.80
9425;DHT22;17139;52.140;11.636;2023-03-11T11:12:57;3.00;64.70
9425;DHT22;17139;52.140;11.636;2023-03-11T11:15:27;3.10;64.90
9425;DHT22;17139;52.140;11.636;2023-03-11T11:17:57;3.00;65.30
9425;DHT22;17139;52.140;11.636;2023-03-11T11:20:25;2.70;65.60
9425;DHT22;17139;52.140;11.636;2023-03-11T11:22:55;2.50;66.60
9425;DHT22;17139;52.140;11.636;2023-03-11T11:25:30;2.40;67.10
9425;DHT22;17139;52.140;11.636;2023-03-11T11:28:01;3.20;65.00
9425;DHT22;17139;52.140;11.636;2023-03-11T11:30:30;3.20;65.10
9425;DHT22;17139;52.140;11.636;2023-03-11T11:33:20;3.10;66.00
9425;DHT22;17139;52.140;11.636;2023-03-11T11:35:50;3.70;63.30
9425;DHT22;17139;52.140;11.636;2023-03-11T11:38:21;3.30;64.60
9425;DHT22;17139;52.140;11.636;2023-03-11T11:40:50;3.00;65.80
9425;DHT22;17139;52.140;11.636;2023-03-11T11:43:21;2.90;66.60
9425;DHT22;17139;52.140;11.636;2023-03-11T11:45:54;2.90;66.90
9425;DHT22;17139;52.140;11.636;2023-03-11T11:48:28;2.90;66.90
9425;DHT22;17139;52.140;11.636;2023-03-11T11:51:00;3.00;66.80
9425;DHT22;17139;52.140;11.636;2023-03-11T11:53:33;3.30;65.70
9425;DHT22;17139;52.140;11.636;2023-03-11T11:56:03;3.10;65.50
9425;DHT22;17139;52.140;11.636;2023-03-11T11:58:31;2.90;66.40
9425;DHT22;17139;52.140;11.636;2023-03-11T12:01:13;2.80;66.90
9425;DHT22;17139;52.140;11.636;2023-03-11T12:06:56;2.80;67.10
9425;DHT22;17139;52.140;11.636;2023-03-11T12:09:28;3.60;64.60
9425;DHT22;17139;52.140;11.636;2023-03-11T12:12:03;3.30;64.90
9425;DHT22;17139;52.140;11.636;2023-03-11T12:14:41;3.40;64.60
9425;DHT22;17139;52.140;11.636;2023-03-11T12:17:10;3.90;63.20
9425;DHT22;17139;52.140;11.636;2023-03-11T12:19:43;3.50;63.60
9425;DHT22;17139;52.140;11.636;2023-03-11T12:22:38;3.10;64.70
9425;DHT22;17139;52.140;11.636;2023-03-11T12:25:20;2.70;65.40
9425;DHT22;17139;52.140;11.636;2023-03-11T12:27:52;2.40;66.30
9425;DHT22;17139;52.140;11.636;2023-03-11T12:30:24;2.50;66.50
9425;DHT22;17139;52.140;11.636;2023-03-11T12:32:56;2.60;65.80
9425;DHT22;17139;52.140;11.636;2023-03-11T12:35:26;2.70;65.20
9425;DHT22;17139;52.140;11.636;2023-03-11T12:38:00;2.60;65.10
9425;DHT22;17139;52.140;11.636;2023-03-11T12:40:56;2.40;66.00
9425;DHT22;17139;52.140;11.636;2023-03-11T12:46:09;2.20;66.50
9425;DHT22;17139;52.140;11.636;2023-03-11T12:48:42;2.30;66.80
9425;DHT22;17139;52.140;11.636;2023-03-11T12:54:26;2.70;65.40
9425;DHT22;17139;52.140;11.636;2023-03-11T12:56:55;3.40;62.50
9425;DHT22;17139;52.140;11.636;2023-03-11T13:05:58;2.70;64.50
9425;DHT22;17139;52.140;11.636;2023-03-11T13:08:27;2.60;64.90
9425;DHT22;17139;52.140;11.636;2023-03-11T13:10:57;2.40;65.30
9425;DHT22;17139;52.140;11.636;2023-03-11T13:13:38;2.50;65.30
9425;DHT22;17139;52.140;11.636;2023-03-11T13:16:39;2.90;64.00
9425;DHT22;17139;52.140;11.636;2023-03-11T13:19:34;2.70;64.50
9425;DHT22;17139;52.140;11.636;2023-03-11T13:22:41;2.60;65.20
9425;DHT22;17139;52.140;11.636;2023-03-11T13:24:51;2.70;66.50
9425;DHT22;17139;52.140;11.636;2023-03-11T13:27:38;2.70;65.30
9425;DHT22;17139;52.140;11.636;2023-03-11T13:30:14;2.70;65.10
9425;DHT22;17139;52.140;11.636;2023-03-11T13:33:06;2.70;65.10
9425;DHT22;17139;52.140;11.636;2023-03-11T13:38:54;2.50;64.30
9425;DHT22;17139;52.140;11.636;2023-03-11T13:41:29;2.50;65.00
9425;DHT22;17139;52.140;11.636;2023-03-11T13:44:08;2.40;64.60
9425;DHT22;17139;52.140;11.636;2023-03-11T13:46:39;2.30;64.60
9425;DHT22;17139;52.140;11.636;2023-03-11T13:49:18;2.20;64.70
9425;DHT22;17139;52.140;11.636;2023-03-11T13:51:49;2.20;64.90
9425;DHT22;17139;52.140;11.636;2023-03-11T13:54:31;2.10;64.90
9425;DHT22;17139;52.140;11.636;2023-03-11T13:57:01;2.10;65.30
9425;DHT22;17139;52.140;11.636;2023-03-11T13:59:29;2.10;65.50
9425;DHT22;17139;52.140;11.636;2023-03-11T14:01:59;2.00;65.80
9425;DHT22;17139;52.140;11.636;2023-03-11T14:04:29;2.20;66.10
9425;DHT22;17139;52.140;11.636;2023-03-11T14:06:57;2.40;65.30
9425;DHT22;17139;52.140;11.636;2023-03-11T14:09:27;2.50;65.20
9425;DHT22;17139;52.140;11.636;2023-03-11T14:11:57;2.40;65.30
9425;DHT22;17139;52.140;11.636;2023-03-11T14:14:41;2.30;65.40
9425;DHT22;17139;52.140;11.636;2023-03-11T14:17:12;2.40;65.80
9425;DHT22;17139;52.140;11.636;2023-03-11T14:19:39;2.40;65.60
9425;DHT22;17139;52.140;11.636;2023-03-11T14:22:07;2.50;65.60
9425;DHT22;17139;52.140;11.636;2023-03-11T14:24:36;2.60;65.50
9425;DHT22;17139;52.140;11.636;2023-03-11T14:27:08;2.70;65.20
9425;DHT22;17139;52.140;11.636;2023-03-11T14:29:37;3.20;63.50
9425;DHT22;17139;52.140;11.636;2023-03-11T14:32:24;3.70;60.80
9425;DHT22;17139;52.140;11.636;2023-03-11T14:34:52;3.30;62.10
9425;DHT22;17139;52.140;11.636;2023-03-11T14:37:26;3.00;63.10
9425;DHT22;17139;52.140;11.636;2023-03-11T14:39:57;2.80;64.10
9425;DHT22;17139;52.140;11.636;2023-03-11T14:42:26;2.70;64.40
9425;DHT22;17139;52.140;11.636;2023-03-11T14:44:58;2.60;64.30
9425;DHT22;17139;52.140;11.636;2023-03-11T14:47:34;2.60;64.60
9425;DHT22;17139;52.140;11.636;2023-03-11T14:50:03;2.60;64.90
9425;DHT22;17139;52.140;11.636;2023-03-11T14:52:35;3.00;63.90
9425;DHT22;17139;52.140;11.636;2023-03-11T14:55:11;3.50;61.40
9425;DHT22;17139;52.140;11.636;2023-03-11T14:57:41;3.30;62.40
9425;DHT22;17139;52.140;11.636;2023-03-11T15:00:14;3.10;63.20
9425;DHT22;17139;52.140;11.636;2023-03-11T15:02:52;3.00;63.90
9425;DHT22;17139;52.140;11.636;2023-03-11T15:05:25;2.90;64.30
9425;DHT22;17139;52.140;11.636;2023-03-11T15:07:57;2.90;64.50
9425;DHT22;17139;52.140;11.636;2023-03-11T15:10:27;2.90;64.50
9425;DHT22;17139;52.140;11.636;2023-03-11T15:13:04;2.90;64.80
9425;DHT22;17139;52.140;11.636;2023-03-11T15:15:31;3.50;62.60
9425;DHT22;17139;52.140;11.636;2023-03-11T15:17:59;4.10;59.60
9425;DHT22;17139;52.140;11.636;2023-03-11T15:20:29;3.70;61.10
9425;DHT22;17139;52.140;11.636;2023-03-11T15:22:57;3.40;62.50
9425;DHT22;17139;52.140;11.636;2023-03-11T15:25:29;3.30;63.50
9425;DHT22;17139;52.140;11.636;2023-03-11T15:27:58;3.20;64.00
9425;DHT22;17139;52.140;11.636;2023-03-11T15:30:27;3.10;64.40
9425;DHT22;17139;52.140;11.636;2023-03-11T15:32:55;3.00;64.60
9425;DHT22;17139;52.140;11.636;2023-03-11T15:35:24;3.00;64.60
9425;DHT22;17139;52.140;11.636;2023-03-11T15:38:10;3.70;61.30
9425;DHT22;17139;52.140;11.636;2023-03-11T15:40:39;4.30;58.70
9425;DHT22;17139;52.140;11.636;2023-03-11T15:43:20;3.80;60.70
9425;DHT22;17139;52.140;11.636;2023-03-11T15:45:48;3.40;62.50
9425;DHT22;17139;52.140;11.636;2023-03-11T15:48:18;3.20;63.40
9425;DHT22;17139;52.140;11.636;2023-03-11T15:50:46;3.10;64.00
9425;DHT22;17139;52.140;11.636;2023-03-11T15:53:17;3.00;64.80
9425;DHT22;17139;52.140;11.636;2023-03-11T15:55:46;2.90;64.50
9425;DHT22;17139;52.140;11.636;2023-03-11T15:58:15;2.80;64.40
9425;DHT22;17139;52.140;11.636;2023-03-11T16:00:45;2.70;64.70
9425;DHT22;17139;52.140;11.636;2023-03-11T16:03:12;2.70;64.80
9425;DHT22;17139;52.140;11.636;2023-03-11T16:05:39;2.60;65.00
9425;DHT22;17139;52.140;11.636;2023-03-11T16:08:06;3.10;63.10
9425;DHT22;17139;52.140;11.636;2023-03-11T16:10:34;3.00;63.30
9425;DHT22;17139;52.140;11.636;2023-03-11T16:13:03;2.80;64.00
9425;DHT22;17139;52.140;11.636;2023-03-11T16:15:31;2.60;64.50
9425;DHT22;17139;52.140;11.636;2023-03-11T16:18:00;2.50;64.80